createdAt,value
2022-11-16T06:05:16.160Z,1.23
2022-11-16T06:08:01.649Z,0.63
2022-11-16T06:10:47.181Z,0.95
2022-11-16T06:13:33.462Z,1.00
2022-11-16T06:16:19.746Z,0.80
2022-11-16T06:19:05.501Z,1.80
2022-11-16T06:21:50.813Z,1.20
2022-11-16T06:24:36.230Z,0.68
2022-11-16T06:27:21.749Z,3.13
2022-11-16T06:30:08.461Z,1.38
2022-11-16T06:32:54.210Z,1.00
2022-11-16T06:35:39.691Z,1.25
2022-11-16T14:35:39.542Z,1.63
2022-11-16T14:38:54.594Z,0.70
2022-11-16T14:41:45.554Z,1.20
2022-11-16T14:44:37.989Z,1.27
2022-11-16T14:47:30.795Z,0.90
2022-11-16T14:50:25.310Z,1.00
2022-11-16T14:53:16.995Z,1.00
2022-11-16T14:56:10.452Z,1.35
2022-11-16T14:58:59.985Z,1.05
2022-11-16T15:01:45.905Z,0.80
2022-11-16T15:04:32.481Z,1.30
2022-11-16T15:07:26.992Z,0.70
2022-11-16T15:10:25.547Z,1.40
2022-11-16T15:13:10.885Z,0.65
2022-11-16T15:16:16.546Z,1.40
2022-11-16T15:19:02.785Z,1.08
2022-11-16T15:22:02.954Z,1.15
2022-11-16T15:25:01.419Z,0.70
2022-11-16T15:27:46.918Z,0.60
2022-11-16T15:30:36.367Z,1.02
2022-11-16T15:33:38.109Z,0.88
2022-11-16T15:39:33.111Z,0.50
2022-11-16T15:42:18.894Z,0.75
2022-11-16T15:45:19.716Z,1.15
2022-11-16T15:48:06.106Z,0.70
2022-11-16T15:51:21.699Z,0.77
2022-11-16T15:54:35.849Z,0.85
2022-11-16T15:57:23.885Z,0.80
2022-11-16T16:00:23.356Z,1.10
2022-11-16T16:03:29.196Z,0.50
2022-11-16T16:06:15.081Z,1.25
2022-11-16T16:09:06.236Z,0.43
2022-11-16T16:11:59.153Z,0.77
2022-11-16T16:14:45.859Z,0.98
2022-11-16T16:17:31.389Z,1.02
2022-11-16T16:20:29.874Z,2.05
2022-11-16T16:23:15.641Z,4.80
2022-11-16T16:26:04.345Z,2.05
2022-11-16T16:28:50.655Z,3.33
2022-11-16T16:31:35.961Z,5.95
2022-11-16T16:34:21.496Z,2.53
2022-11-16T16:37:11.127Z,3.58
2022-11-16T16:39:57.859Z,2.53
2022-11-16T16:42:43.992Z,3.58
2022-11-16T16:45:41.724Z,2.95
2022-11-16T16:48:27.350Z,8.55
2022-11-16T16:51:13.229Z,15.07
2022-11-16T16:53:58.555Z,10.75
2022-11-16T16:56:44.052Z,6.88
2022-11-16T16:59:29.875Z,8.60
2022-11-16T17:02:16.449Z,6.07
2022-11-16T17:05:02.360Z,12.35
2022-11-16T17:07:47.610Z,7.63
2022-11-16T17:10:32.933Z,9.60
2022-11-16T17:13:18.996Z,4.38
2022-11-16T17:16:05.876Z,3.60
2022-11-16T17:18:57.475Z,6.78
2022-11-16T17:24:28.522Z,3.42
2022-11-16T17:27:14.219Z,2.58
2022-11-16T17:30:00.116Z,13.88
2022-11-16T17:32:45.945Z,15.30
2022-11-16T17:35:31.544Z,7.13
2022-11-16T17:38:16.826Z,6.18
2022-11-16T17:41:22.018Z,5.95
2022-11-16T17:44:08.530Z,3.53
2022-11-16T17:46:54.238Z,3.05
